sensor_id;sensor_type;location;lat;lon;timestamp;P1;durP1;ratioP1;P2;durP2;ratioP2
14520;SDS011;7347;50.844;4.490;2023-07-16T09:53:31;2.92;;;1.85;;
14520;SDS011;7347;50.844;4.490;2023-07-16T09:56:01;4.85;;;2.35;;
14520;SDS011;7347;50.844;4.490;2023-07-16T09:58:29;3.53;;;1.80;;
14520;SDS011;7347;50.844;4.490;2023-07-16T10:00:57;2.60;;;1.60;;
14520;SDS011;7347;50.844;4.490;2023-07-16T10:03:25;5.85;;;2.08;;
14520;SDS011;7347;50.844;4.490;2023-07-16T10:05:52;3.72;;;1.70;;
14520;SDS011;7347;50.844;4.490;2023-07-16T10:08:19;4.47;;;1.70;;
14520;SDS011;7347;50.844;4.490;2023-07-16T10:10:48;3.70;;;1.67;;
14520;SDS011;7347;50.844;4.490;2023-07-16T10:13:22;3.55;;;1.50;;
14520;SDS011;7347;50.844;4.490;2023-07-16T10:15:53;5.05;;;2.00;;
14520;SDS011;7347;50.844;4.490;2023-07-16T10:18:24;3.90;;;1.58;;
14520;SDS011;7347;50.844;4.490;2023-07-16T10:20:59;3.75;;;1.60;;
14520;SDS011;7347;50.844;4.490;2023-07-16T10:23:36;4.18;;;1.75;;
14520;SDS011;7347;50.844;4.490;2023-07-16T10:26:07;3.63;;;1.90;;
14520;SDS011;7347;50.844;4.490;2023-07-16T10:28:38;4.07;;;1.55;;
14520;SDS011;7347;50.844;4.490;2023-07-16T10:31:05;4.05;;;1.88;;
14520;SDS011;7347;50.844;4.490;2023-07-16T10:33:42;4.82;;;1.67;;
14520;SDS011;7347;50.844;4.490;2023-07-16T10:36:09;5.95;;;1.80;;
14520;SDS011;7347;50.844;4.490;2023-07-16T10:38:40;3.20;;;1.70;;
14520;SDS011;7347;50.844;4.490;2023-07-16T10:41:09;4.85;;;1.80;;
14520;SDS011;7347;50.844;4.490;2023-07-16T10:43:36;3.13;;;1.60;;
14520;SDS011;7347;50.844;4.490;2023-07-16T10:46:03;4.32;;;2.08;;
14520;SDS011;7347;50.844;4.490;2023-07-16T10:48:29;5.00;;;1.70;;
14520;SDS011;7347;50.844;4.490;2023-07-16T10:50:56;4.28;;;1.42;;
14520;SDS011;7347;50.844;4.490;2023-07-16T10:53:23;4.20;;;1.70;;
14520;SDS011;7347;50.844;4.490;2023-07-16T10:55:50;4.97;;;1.92;;
14520;SDS011;7347;50.844;4.490;2023-07-16T10:58:18;4.78;;;1.90;;
14520;SDS011;7347;50.844;4.490;2023-07-16T11:00:45;4.30;;;1.85;;
14520;SDS011;7347;50.844;4.490;2023-07-16T11:03:14;5.65;;;1.92;;
14520;SDS011;7347;50.844;4.490;2023-07-16T11:05:44;4.25;;;2.20;;
14520;SDS011;7347;50.844;4.490;2023-07-16T11:08:21;4.03;;;1.75;;
14520;SDS011;7347;50.844;4.490;2023-07-16T11:10:52;4.97;;;1.75;;
14520;SDS011;7347;50.844;4.490;2023-07-16T11:13:24;3.22;;;1.65;;
14520;SDS011;7347;50.844;4.490;2023-07-16T11:15:51;4.25;;;1.85;;
14520;SDS011;7347;50.844;4.490;2023-07-16T11:18:18;5.32;;;2.00;;
14520;SDS011;7347;50.844;4.490;2023-07-16T11:20:49;8.27;;;2.45;;
14520;SDS011;7347;50.844;4.490;2023-07-16T11:23:17;3.70;;;1.98;;
14520;SDS011;7347;50.844;4.490;2023-07-16T11:25:45;3.78;;;1.55;;
14520;SDS011;7347;50.844;4.490;2023-07-16T11:28:13;3.85;;;1.95;;
14520;SDS011;7347;50.844;4.490;2023-07-16T11:30:41;5.28;;;1.70;;
14520;SDS011;7347;50.844;4.490;2023-07-16T11:33:09;5.45;;;1.98;;
14520;SDS011;7347;50.844;4.490;2023-07-16T11:35:37;5.00;;;1.70;;
14520;SDS011;7347;50.844;4.490;2023-07-16T11:38:04;4.22;;;2.08;;
14520;SDS011;7347;50.844;4.490;2023-07-16T11:40:33;3.78;;;1.50;;
14520;SDS011;7347;50.844;4.490;2023-07-16T11:43:07;3.03;;;1.35;;
14520;SDS011;7347;50.844;4.490;2023-07-16T11:45:34;3.45;;;1.63;;
14520;SDS011;7347;50.844;4.490;2023-07-16T11:48:03;3.20;;;1.60;;
14520;SDS011;7347;50.844;4.490;2023-07-16T11:50:30;6.70;;;3.67;;
14520;SDS011;7347;50.844;4.490;2023-07-16T11:52:59;5.85;;;2.25;;
14520;SDS011;7347;50.844;4.490;2023-07-16T11:55:27;4.97;;;2.72;;
14520;SDS011;7347;50.844;4.490;2023-07-16T11:57:53;3.08;;;1.73;;
14520;SDS011;7347;50.844;4.490;2023-07-16T12:00:22;3.58;;;1.67;;
14520;SDS011;7347;50.844;4.490;2023-07-16T12:02:49;4.15;;;1.90;;
14520;SDS011;7347;50.844;4.490;2023-07-16T12:05:18;3.17;;;1.50;;
14520;SDS011;7347;50.844;4.490;2023-07-16T12:07:45;4.05;;;1.85;;
14520;SDS011;7347;50.844;4.490;2023-07-16T12:10:12;6.70;;;1.60;;
14520;SDS011;7347;50.844;4.490;2023-07-16T12:12:39;5.38;;;1.85;;
14520;SDS011;7347;50.844;4.490;2023-07-16T12:15:06;5.88;;;1.60;;
14520;SDS011;7347;50.844;4.490;2023-07-16T12:17:34;2.65;;;1.65;;
14520;SDS011;7347;50.844;4.490;2023-07-16T12:20:01;4.93;;;1.88;;
14520;SDS011;7347;50.844;4.490;2023-07-16T12:22:30;3.63;;;1.63;;
14520;SDS011;7347;50.844;4.490;2023-07-16T12:24:57;3.88;;;1.42;;
14520;SDS011;7347;50.844;4.490;2023-07-16T12:27:23;2.85;;;1.45;;
14520;SDS011;7347;50.844;4.490;2023-07-16T12:29:50;3.65;;;1.38;;
14520;SDS011;7347;50.844;4.490;2023-07-16T12:32:17;2.80;;;1.50;;
14520;SDS011;7347;50.844;4.490;2023-07-16T12:34:45;4.35;;;1.30;;
14520;SDS011;7347;50.844;4.490;2023-07-16T12:37:12;4.65;;;1.63;;
14520;SDS011;7347;50.844;4.490;2023-07-16T12:39:40;3.08;;;1.40;;
14520;SDS011;7347;50.844;4.490;2023-07-16T12:42:07;4.35;;;1.45;;
14520;SDS011;7347;50.844;4.490;2023-07-16T12:44:33;4.63;;;1.60;;
14520;SDS011;7347;50.844;4.490;2023-07-16T12:47:00;2.53;;;1.35;;
14520;SDS011;7347;50.844;4.490;2023-07-16T12:49:27;2.90;;;1.50;;
14520;SDS011;7347;50.844;4.490;2023-07-16T12:51:54;2.15;;;1.40;;
14520;SDS011;7347;50.844;4.490;2023-07-16T12:54:20;5.00;;;1.83;;
14520;SDS011;7347;50.844;4.490;2023-07-16T12:56:49;4.68;;;1.58;;
14520;SDS011;7347;50.844;4.490;2023-07-16T12:59:16;2.25;;;1.30;;
14520;SDS011;7347;50.844;4.490;2023-07-16T13:01:43;3.92;;;1.55;;
14520;SDS011;7347;50.844;4.490;2023-07-16T13:04:10;2.08;;;1.23;;
14520;SDS011;7347;50.844;4.490;2023-07-16T13:06:37;3.90;;;1.60;;
14520;SDS011;7347;50.844;4.490;2023-07-16T13:09:03;5.43;;;1.77;;
14520;SDS011;7347;50.844;4.490;2023-07-16T13:11:30;4.47;;;1.52;;
14520;SDS011;7347;50.844;4.490;2023-07-16T13:13:59;3.22;;;1.10;;
14520;SDS011;7347;50.844;4.490;2023-07-16T13:16:26;4.93;;;1.40;;
14520;SDS011;7347;50.844;4.490;2023-07-16T13:18:52;2.58;;;1.30;;
14520;SDS011;7347;50.844;4.490;2023-07-16T13:21:19;3.78;;;1.60;;
14520;SDS011;7347;50.844;4.490;2023-07-16T13:23:46;4.82;;;1.52;;
14520;SDS011;7347;50.844;4.490;2023-07-16T13:26:13;3.10;;;1.48;;
14520;SDS011;7347;50.844;4.490;2023-07-16T13:28:40;2.88;;;1.20;;
14520;SDS011;7347;50.844;4.490;2023-07-16T13:31:08;2.38;;;1.27;;
14520;SDS011;7347;50.844;4.490;2023-07-16T13:33:35;3.13;;;1.42;;
14520;SDS011;7347;50.844;4.490;2023-07-16T13:36:02;2.95;;;1.20;;
14520;SDS011;7347;50.844;4.490;2023-07-16T13:38:29;2.40;;;1.20;;
14520;SDS011;7347;50.844;4.490;2023-07-16T13:40:56;2.63;;;1.15;;
14520;SDS011;7347;50.844;4.490;2023-07-16T13:43:23;2.50;;;1.27;;
14520;SDS011;7347;50.844;4.490;2023-07-16T13:45:50;3.55;;;1.48;;
14520;SDS011;7347;50.844;4.490;2023-07-16T13:48:18;3.70;;;1.27;;
14520;SDS011;7347;50.844;4.490;2023-07-16T13:50:45;2.05;;;1.23;;
14520;SDS011;7347;50.844;4.490;2023-07-16T13:53:12;2.10;;;1.40;;
14520;SDS011;7347;50.844;4.490;2023-07-16T13:55:39;2.33;;;1.30;;
14520;SDS011;7347;50.844;4.490;2023-07-16T13:58:06;2.85;;;1.17;;
14520;SDS011;7347;50.844;4.490;2023-07-16T14:00:33;3.42;;;1.13;;
14520;SDS011;7347;50.844;4.490;2023-07-16T14:03:00;2.13;;;1.20;;
14520;SDS011;7347;50.844;4.490;2023-07-16T14:05:28;2.17;;;1.00;;
14520;SDS011;7347;50.844;4.490;2023-07-16T14:07:55;1.95;;;1.05;;
14520;SDS011;7347;50.844;4.490;2023-07-16T14:10:22;5.32;;;0.85;;
14520;SDS011;7347;50.844;4.490;2023-07-16T14:12:49;2.40;;;1.13;;
14520;SDS011;7347;50.844;4.490;2023-07-16T14:15:15;1.98;;;1.15;;
14520;SDS011;7347;50.844;4.490;2023-07-16T14:17:42;2.03;;;0.90;;
14520;SDS011;7347;50.844;4.490;2023-07-16T14:20:09;3.33;;;1.30;;
14520;SDS011;7347;50.844;4.490;2023-07-16T14:22:38;3.15;;;0.90;;
14520;SDS011;7347;50.844;4.490;2023-07-16T14:25:05;1.55;;;1.00;;
14520;SDS011;7347;50.844;4.490;2023-07-16T14:27:33;3.08;;;1.08;;
14520;SDS011;7347;50.844;4.490;2023-07-16T14:30:00;1.80;;;1.08;;
14520;SDS011;7347;50.844;4.490;2023-07-16T14:32:27;2.63;;;1.00;;
14520;SDS011;7347;50.844;4.490;2023-07-16T14:34:56;3.22;;;1.20;;
14520;SDS011;7347;50.844;4.490;2023-07-16T14:37:23;3.15;;;1.10;;
14520;SDS011;7347;50.844;4.490;2023-07-16T14:39:51;5.10;;;1.38;;
14520;SDS011;7347;50.844;4.490;2023-07-16T14:42:18;2.90;;;1.50;;
14520;SDS011;7347;50.844;4.490;2023-07-16T14:44:45;1.80;;;1.10;;
14520;SDS011;7347;50.844;4.490;2023-07-16T14:47:12;1.33;;;1.13;;
14520;SDS011;7347;50.844;4.490;2023-07-16T14:49:38;3.15;;;1.50;;
14520;SDS011;7347;50.844;4.490;2023-07-16T14:52:06;3.00;;;1.30;;
14520;SDS011;7347;50.844;4.490;2023-07-16T14:54:32;4.10;;;1.55;;
14520;SDS011;7347;50.844;4.490;2023-07-16T14:57:02;2.72;;;1.30;;
14520;SDS011;7347;50.844;4.490;2023-07-16T14:59:30;3.20;;;1.40;;
14520;SDS011;7347;50.844;4.490;2023-07-16T15:01:57;1.98;;;1.40;;
14520;SDS011;7347;50.844;4.490;2023-07-16T15:04:23;3.20;;;1.17;;
14520;SDS011;7347;50.844;4.490;2023-07-16T15:06:50;1.85;;;1.25;;
14520;SDS011;7347;50.844;4.490;2023-07-16T15:09:17;2.15;;;1.30;;
14520;SDS011;7347;50.844;4.490;2023-07-16T15:11:44;2.25;;;1.13;;
14520;SDS011;7347;50.844;4.490;2023-07-16T15:14:12;3.38;;;1.23;;
14520;SDS011;7347;50.844;4.490;2023-07-16T15:16:39;2.38;;;1.00;;
14520;SDS011;7347;50.844;4.490;2023-07-16T15:19:06;2.20;;;1.10;;
14520;SDS011;7347;50.844;4.490;2023-07-16T15:21:34;2.58;;;0.77;;
14520;SDS011;7347;50.844;4.490;2023-07-16T15:24:02;1.55;;;0.80;;
14520;SDS011;7347;50.844;4.490;2023-07-16T15:26:29;1.30;;;0.75;;
14520;SDS011;7347;50.844;4.490;2023-07-16T15:28:56;2.97;;;0.90;;
14520;SDS011;7347;50.844;4.490;2023-07-16T15:31:24;0.88;;;0.70;;
14520;SDS011;7347;50.844;4.490;2023-07-16T15:33:53;1.13;;;0.60;;
14520;SDS011;7347;50.844;4.490;2023-07-16T15:36:20;2.53;;;0.90;;
14520;SDS011;7347;50.844;4.490;2023-07-16T15:38:47;1.77;;;1.02;;
14520;SDS011;7347;50.844;4.490;2023-07-16T15:41:14;3.55;;;0.80;;
14520;SDS011;7347;50.844;4.490;2023-07-16T15:43:42;2.55;;;1.23;;
14520;SDS011;7347;50.844;4.490;2023-07-16T15:46:13;4.78;;;1.15;;
14520;SDS011;7347;50.844;4.490;2023-07-16T15:48:42;2.13;;;1.20;;
14520;SDS011;7347;50.844;4.490;2023-07-16T15:51:10;3.25;;;1.30;;
14520;SDS011;7347;50.844;4.490;2023-07-16T15:53:37;1.83;;;1.00;;
14520;SDS011;7347;50.844;4.490;2023-07-16T15:56:04;2.75;;;1.05;;
14520;SDS011;7347;50.844;4.490;2023-07-16T15:58:31;1.73;;;1.13;;
14520;SDS011;7347;50.844;4.490;2023-07-16T16:00:57;2.22;;;1.13;;
14520;SDS011;7347;50.844;4.490;2023-07-16T16:03:24;3.83;;;1.30;;
14520;SDS011;7347;50.844;4.490;2023-07-16T16:05:53;2.88;;;1.00;;
14520;SDS011;7347;50.844;4.490;2023-07-16T16:08:20;2.58;;;1.20;;
14520;SDS011;7347;50.844;4.490;2023-07-16T16:10:48;4.50;;;1.35;;
14520;SDS011;7347;50.844;4.490;2023-07-16T16:13:16;3.33;;;1.02;;
14520;SDS011;7347;50.844;4.490;2023-07-16T16:15:44;1.83;;;1.23;;
14520;SDS011;7347;50.844;4.490;2023-07-16T16:18:11;3.10;;;1.17;;
14520;SDS011;7347;50.844;4.490;2023-07-16T16:20:39;2.95;;;1.38;;
14520;SDS011;7347;50.844;4.490;2023-07-16T16:23:08;1.63;;;1.15;;
14520;SDS011;7347;50.844;4.490;2023-07-16T16:25:35;3.03;;;1.63;;
14520;SDS011;7347;50.844;4.490;2023-07-16T16:28:02;5.07;;;1.65;;
14520;SDS011;7347;50.844;4.490;2023-07-16T16:30:30;2.90;;;1.50;;
14520;SDS011;7347;50.844;4.490;2023-07-16T16:32:58;3.10;;;1.20;;
14520;SDS011;7347;50.844;4.490;2023-07-16T16:35:27;4.50;;;1.38;;
14520;SDS011;7347;50.844;4.490;2023-07-16T16:37:54;3.88;;;1.60;;
14520;SDS011;7347;50.844;4.490;2023-07-16T16:40:23;3.15;;;1.20;;
14520;SDS011;7347;50.844;4.490;2023-07-16T16:42:50;2.30;;;1.52;;
14520;SDS011;7347;50.844;4.490;2023-07-16T16:45:16;2.30;;;1.50;;
14520;SDS011;7347;50.844;4.490;2023-07-16T16:47:43;2.08;;;1.50;;
14520;SDS011;7347;50.844;4.490;2023-07-16T16:50:10;1.65;;;1.20;;
14520;SDS011;7347;50.844;4.490;2023-07-16T16:52:39;2.80;;;1.70;;
14520;SDS011;7347;50.844;4.490;2023-07-16T16:55:07;3.75;;;1.20;;
14520;SDS011;7347;50.844;4.490;2023-07-16T16:57:35;4.38;;;1.30;;
14520;SDS011;7347;50.844;4.490;2023-07-16T17:00:02;2.72;;;1.50;;
14520;SDS011;7347;50.844;4.490;2023-07-16T17:02:35;2.72;;;1.33;;
14520;SDS011;7347;50.844;4.490;2023-07-16T17:05:03;4.05;;;1.33;;
14520;SDS011;7347;50.844;4.490;2023-07-16T17:07:30;5.10;;;1.13;;
14520;SDS011;7347;50.844;4.490;2023-07-16T17:09:57;3.15;;;1.35;;
14520;SDS011;7347;50.844;4.490;2023-07-16T17:12:23;3.33;;;1.40;;
14520;SDS011;7347;50.844;4.490;2023-07-16T17:14:52;2.45;;;1.50;;
14520;SDS011;7347;50.844;4.490;2023-07-16T17:17:18;1.98;;;1.40;;
14520;SDS011;7347;50.844;4.490;2023-07-16T17:19:46;2.40;;;1.45;;
14520;SDS011;7347;50.844;4.490;2023-07-16T17:22:13;4.43;;;1.60;;
14520;SDS011;7347;50.844;4.490;2023-07-16T17:24:42;4.70;;;1.50;;
14520;SDS011;7347;50.844;4.490;2023-07-16T17:27:09;3.55;;;1.75;;
14520;SDS011;7347;50.844;4.490;2023-07-16T17:29:41;3.35;;;1.30;;
14520;SDS011;7347;50.844;4.490;2023-07-16T17:32:10;3.22;;;1.55;;
14520;SDS011;7347;50.844;4.490;2023-07-16T17:34:36;3.80;;;1.48;;
14520;SDS011;7347;50.844;4.490;2023-07-16T17:37:06;2.85;;;1.38;;
14520;SDS011;7347;50.844;4.490;2023-07-16T17:39:33;3.72;;;1.40;;
14520;SDS011;7347;50.844;4.490;2023-07-16T17:42:00;2.33;;;1.30;;
14520;SDS011;7347;50.844;4.490;2023-07-16T17:44:28;2.28;;;1.10;;
14520;SDS011;7347;50.844;4.490;2023-07-16T17:46:55;3.13;;;1.48;;
14520;SDS011;7347;50.844;4.490;2023-07-16T17:49:23;2.97;;;1.55;;
14520;SDS011;7347;50.844;4.490;2023-07-16T17:51:50;3.40;;;1.67;;
14520;SDS011;7347;50.844;4.490;2023-07-16T17:54:18;2.45;;;1.63;;
14520;SDS011;7347;50.844;4.490;2023-07-16T17:56:46;2.63;;;1.60;;
14520;SDS011;7347;50.844;4.490;2023-07-16T17:59:13;2.85;;;1.40;;
14520;SDS011;7347;50.844;4.490;2023-07-16T18:01:39;3.70;;;1.45;;
14520;SDS011;7347;50.844;4.490;2023-07-16T18:04:06;1.77;;;1.20;;
14520;SDS011;7347;50.844;4.490;2023-07-16T18:06:34;2.65;;;1.20;;
14520;SDS011;7347;50.844;4.490;2023-07-16T18:09:01;1.88;;;1.15;;
14520;SDS011;7347;50.844;4.490;2023-07-16T18:11:30;4.53;;;1.50;;
14520;SDS011;7347;50.844;4.490;2023-07-16T18:13:57;4.30;;;1.50;;
14520;SDS011;7347;50.844;4.490;2023-07-16T18:16:24;2.38;;;1.25;;
14520;SDS011;7347;50.844;4.490;2023-07-16T18:18:51;4.47;;;1.58;;
14520;SDS011;7347;50.844;4.490;2023-07-16T18:21:17;4.45;;;1.70;;
14520;SDS011;7347;50.844;4.490;2023-07-16T18:23:46;3.45;;;1.65;;
14520;SDS011;7347;50.844;4.490;2023-07-16T18:26:13;2.38;;;1.50;;
14520;SDS011;7347;50.844;4.490;2023-07-16T18:28:40;2.63;;;1.38;;
14520;SDS011;7347;50.844;4.490;2023-07-16T18:31:07;3.88;;;1.50;;
14520;SDS011;7347;50.844;4.490;2023-07-16T18:33:34;2.90;;;1.23;;
14520;SDS011;7347;50.844;4.490;2023-07-16T18:36:00;3.50;;;1.30;;
14520;SDS011;7347;50.844;4.490;2023-07-16T18:38:27;5.35;;;1.25;;
14520;SDS011;7347;50.844;4.490;2023-07-16T18:40:55;7.63;;;1.70;;
14520;SDS011;7347;50.844;4.490;2023-07-16T18:43:22;4.25;;;1.75;;
14520;SDS011;7347;50.844;4.490;2023-07-16T18:45:49;3.63;;;1.45;;
14520;SDS011;7347;50.844;4.490;2023-07-16T18:48:16;3.00;;;1.30;;
14520;SDS011;7347;50.844;4.490;2023-07-16T18:50:43;3.15;;;1.30;;
14520;SDS011;7347;50.844;4.490;2023-07-16T18:53:09;2.97;;;1.40;;
14520;SDS011;7347;50.844;4.490;2023-07-16T18:55:36;1.52;;;1.23;;
14520;SDS011;7347;50.844;4.490;2023-07-16T18:58:04;6.30;;;1.52;;
14520;SDS011;7347;50.844;4.490;2023-07-16T19:00:31;3.42;;;1.42;;
14520;SDS011;7347;50.844;4.490;2023-07-16T19:02:58;3.50;;;1.33;;
14520;SDS011;7347;50.844;4.490;2023-07-16T19:05:25;2.40;;;1.38;;
14520;SDS011;7347;50.844;4.490;2023-07-16T19:07:52;2.55;;;1.10;;
14520;SDS011;7347;50.844;4.490;2023-07-16T19:10:18;3.63;;;1.35;;
14520;SDS011;7347;50.844;4.490;2023-07-16T19:12:45;2.13;;;1.13;;
14520;SDS011;7347;50.844;4.490;2023-07-16T19:15:13;2.78;;;1.33;;
14520;SDS011;7347;50.844;4.490;2023-07-16T19:17:40;3.03;;;1.58;;
14520;SDS011;7347;50.844;4.490;2023-07-16T19:20:07;3.05;;;1.40;;
14520;SDS011;7347;50.844;4.490;2023-07-16T19:22:35;2.80;;;1.60;;
14520;SDS011;7347;50.844;4.490;2023-07-16T19:25:02;2.65;;;1.30;;
14520;SDS011;7347;50.844;4.490;2023-07-16T19:27:29;2.90;;;1.70;;
14520;SDS011;7347;50.844;4.490;2023-07-16T19:29:57;6.35;;;1.92;;
14520;SDS011;7347;50.844;4.490;2023-07-16T19:32:27;2.03;;;1.15;;
14520;SDS011;7347;50.844;4.490;2023-07-16T19:34:54;3.22;;;1.55;;
14520;SDS011;7347;50.844;4.490;2023-07-16T19:37:20;2.58;;;1.50;;
14520;SDS011;7347;50.844;4.490;2023-07-16T19:39:47;2.47;;;1.48;;
14520;SDS011;7347;50.844;4.490;2023-07-16T19:42:14;2.97;;;1.35;;
14520;SDS011;7347;50.844;4.490;2023-07-16T19:44:42;2.58;;;1.58;;
14520;SDS011;7347;50.844;4.490;2023-07-16T19:47:09;2.63;;;1.30;;
14520;SDS011;7347;50.844;4.490;2023-07-16T19:49:37;4.95;;;1.50;;
14520;SDS011;7347;50.844;4.490;2023-07-16T19:52:04;2.25;;;1.27;;
14520;SDS011;7347;50.844;4.490;2023-07-16T19:54:32;2.13;;;1.10;;
14520;SDS011;7347;50.844;4.490;2023-07-16T19:56:58;4.75;;;1.30;;
14520;SDS011;7347;50.844;4.490;2023-07-16T19:59:25;2.58;;;1.40;;
14520;SDS011;7347;50.844;4.490;2023-07-16T20:01:52;1.67;;;1.25;;
14520;SDS011;7347;50.844;4.490;2023-07-16T20:04:19;1.73;;;1.20;;
14520;SDS011;7347;50.844;4.490;2023-07-16T20:06:48;2.10;;;1.20;;
14520;SDS011;7347;50.844;4.490;2023-07-16T20:09:15;1.80;;;0.90;;
14520;SDS011;7347;50.844;4.490;2023-07-16T20:11:42;4.22;;;1.30;;
14520;SDS011;7347;50.844;4.490;2023-07-16T20:14:09;1.40;;;0.93;;
14520;SDS011;7347;50.844;4.490;2023-07-16T20:16:35;2.60;;;1.20;;
14520;SDS011;7347;50.844;4.490;2023-07-16T20:19:04;4.35;;;1.25;;
14520;SDS011;7347;50.844;4.490;2023-07-16T20:21:31;4.32;;;1.30;;
14520;SDS011;7347;50.844;4.490;2023-07-16T20:23:59;4.60;;;1.08;;
14520;SDS011;7347;50.844;4.490;2023-07-16T20:26:28;2.67;;;0.85;;
14520;SDS011;7347;50.844;4.490;2023-07-16T20:28:55;2.03;;;1.25;;
14520;SDS011;7347;50.844;4.490;2023-07-16T20:31:23;1.60;;;1.20;;
14520;SDS011;7347;50.844;4.490;2023-07-16T20:33:51;3.13;;;1.20;;
14520;SDS011;7347;50.844;4.490;2023-07-16T20:36:18;5.05;;;1.25;;
14520;SDS011;7347;50.844;4.490;2023-07-16T20:38:45;2.33;;;0.98;;
14520;SDS011;7347;50.844;4.490;2023-07-16T20:41:13;1.42;;;0.93;;
14520;SDS011;7347;50.844;4.490;2023-07-16T20:43:41;2.80;;;1.20;;
14520;SDS011;7347;50.844;4.490;2023-07-16T20:46:08;2.80;;;1.30;;
14520;SDS011;7347;50.844;4.490;2023-07-16T20:48:34;1.50;;;1.15;;
14520;SDS011;7347;50.844;4.490;2023-07-16T20:51:06;1.27;;;0.80;;
14520;SDS011;7347;50.844;4.490;2023-07-16T20:53:34;1.50;;;0.82;;
14520;SDS011;7347;50.844;4.490;2023-07-16T20:56:01;2.45;;;1.15;;
14520;SDS011;7347;50.844;4.490;2023-07-16T20:58:29;2.42;;;1.08;;
14520;SDS011;7347;50.844;4.490;2023-07-16T21:00:56;1.95;;;1.00;;
14520;SDS011;7347;50.844;4.490;2023-07-16T21:03:23;2.90;;;0.93;;
14520;SDS011;7347;50.844;4.490;2023-07-16T21:05:52;3.67;;;0.93;;
